createdAt,value
2023-05-20T00:00:07.815Z,18.30
2023-05-20T00:02:37.065Z,18.30
2023-05-20T00:05:06.203Z,18.30
2023-05-20T00:07:34.923Z,18.20
2023-05-20T00:10:03.548Z,18.20
2023-05-20T00:12:32.182Z,18.20
2023-05-20T00:15:01.042Z,18.10
2023-05-20T00:17:29.728Z,18.10
2023-05-20T00:20:00.054Z,18.10
2023-05-20T00:22:28.670Z,18.10
2023-05-20T00:24:57.288Z,18.10
2023-05-20T00:27:25.909Z,18.10
2023-05-20T00:29:54.617Z,18.00
2023-05-20T00:32:23.381Z,18.00
2023-05-20T00:35:18.581Z,18.00
2023-05-20T00:37:47.218Z,18.00
2023-05-20T00:40:16.275Z,18.00
2023-05-20T00:42:44.868Z,17.90
2023-05-20T00:45:13.492Z,17.90
2023-05-20T00:47:43.176Z,17.90
2023-05-20T00:50:12.119Z,17.90
2023-05-20T00:52:43.156Z,17.90
2023-05-20T00:55:11.834Z,17.90
2023-05-20T00:57:40.768Z,17.90
2023-05-20T01:00:10.893Z,17.90
2023-05-20T01:02:39.610Z,17.80
2023-05-20T01:05:08.998Z,17.80
2023-05-20T01:07:37.748Z,17.80
2023-05-20T01:10:07.205Z,17.70
2023-05-20T01:12:41.798Z,17.70
2023-05-20T01:15:12.492Z,17.70
2023-05-20T01:17:47.007Z,17.60
2023-05-20T01:20:16.560Z,17.60
2023-05-20T01:23:15.199Z,17.60
2023-05-20T01:25:43.917Z,17.50
2023-05-20T01:28:14.320Z,17.40
2023-05-20T01:30:46.370Z,17.40
2023-05-20T01:33:17.472Z,17.30
2023-05-20T01:35:46.260Z,17.30
2023-05-20T01:38:16.537Z,17.30
2023-05-20T01:40:47.125Z,17.30
2023-05-20T01:43:18.366Z,17.20
2023-05-20T01:45:47.079Z,17.20
2023-05-20T01:50:54.019Z,17.10
2023-05-20T01:53:22.652Z,17.00
2023-05-20T01:55:51.462Z,17.00
2023-05-20T01:58:20.152Z,17.00
2023-05-20T02:00:48.892Z,16.90
2023-05-20T02:03:17.651Z,16.90
2023-05-20T02:05:46.356Z,16.90
2023-05-20T02:08:15.040Z,16.90
2023-05-20T02:10:43.656Z,16.80
2023-05-20T02:13:12.293Z,16.80
2023-05-20T02:15:42.923Z,16.80
2023-05-20T02:18:12.812Z,16.80
2023-05-20T02:20:42.738Z,16.70
2023-05-20T02:23:11.505Z,16.70
2023-05-20T02:25:41.904Z,16.80
2023-05-20T02:28:12.159Z,16.70
2023-05-20T02:30:41.001Z,16.60
2023-05-20T02:33:09.781Z,16.60
2023-05-20T02:35:38.528Z,16.60
2023-05-20T02:38:07.407Z,16.60
2023-05-20T02:40:36.136Z,16.60
2023-05-20T02:43:04.883Z,16.50
2023-05-20T02:45:33.524Z,16.50
2023-05-20T02:48:02.267Z,16.50
2023-05-20T02:50:30.855Z,16.50
2023-05-20T02:52:59.497Z,16.40
2023-05-20T02:55:28.264Z,16.40
2023-05-20T02:57:57.108Z,16.40
2023-05-20T03:00:31.802Z,16.30
2023-05-20T03:03:06.843Z,16.30
2023-05-20T03:05:33.971Z,16.20
2023-05-20T03:08:10.518Z,16.20
2023-05-20T03:10:42.158Z,16.20
2023-05-20T03:13:21.908Z,16.20
2023-05-20T03:15:58.385Z,16.10
2023-05-20T03:18:33.946Z,16.10
2023-05-20T03:21:01.872Z,16.10
2023-05-20T03:23:45.928Z,16.10
2023-05-20T03:26:27.252Z,16.10
2023-05-20T03:28:56.106Z,16.00
2023-05-20T03:31:29.512Z,15.90
2023-05-20T03:33:59.227Z,15.90
2023-05-20T03:36:36.693Z,15.90
2023-05-20T03:39:14.612Z,15.80
2023-05-20T03:41:46.904Z,15.80
2023-05-20T03:44:23.291Z,15.70
2023-05-20T03:47:10.573Z,15.70
2023-05-20T03:49:41.469Z,15.60
2023-05-20T03:52:21.273Z,15.60
2023-05-20T03:54:43.946Z,15.60
2023-05-20T03:57:24.641Z,15.50
2023-05-20T03:59:48.326Z,15.60
2023-05-20T04:02:17.430Z,15.60
2023-05-20T04:04:48.029Z,15.60
2023-05-20T04:07:16.923Z,15.60
2023-05-20T04:09:46.421Z,15.60
2023-05-20T04:12:21.757Z,15.60
2023-05-20T04:14:52.889Z,15.70
2023-05-20T04:20:06.714Z,15.70
2023-05-20T04:22:42.365Z,15.70
2023-05-20T04:25:31.408Z,15.70
2023-05-20T04:28:12.167Z,15.80
2023-05-20T04:31:22.444Z,15.80
2023-05-20T04:33:50.277Z,15.80
2023-05-20T04:39:10.169Z,16.00
2023-05-20T04:41:40.753Z,16.10
2023-05-20T04:44:12.922Z,16.20
2023-05-20T04:46:43.217Z,16.30
2023-05-20T04:49:49.003Z,16.40
2023-05-20T04:52:18.101Z,16.60
2023-05-20T04:54:46.727Z,16.80
2023-05-20T04:57:15.377Z,17.00
2023-05-20T04:59:45.632Z,17.20
2023-05-20T05:02:14.774Z,17.30
2023-05-20T05:04:43.452Z,17.50
2023-05-20T05:07:12.023Z,17.70
2023-05-20T05:09:40.701Z,17.90
2023-05-20T05:12:09.349Z,18.10
2023-05-20T05:17:20.674Z,18.40
2023-05-20T05:19:49.379Z,18.60
2023-05-20T05:22:17.984Z,18.80
2023-05-20T05:24:46.694Z,19.00
2023-05-20T05:27:15.336Z,19.10
2023-05-20T05:29:44.005Z,18.80
2023-05-20T05:32:12.694Z,19.50
2023-05-20T05:34:41.366Z,19.60
2023-05-20T05:37:09.981Z,19.70
2023-05-20T05:39:38.616Z,19.90
2023-05-20T05:42:07.260Z,20.10
2023-05-20T05:44:35.945Z,20.20
2023-05-20T05:47:05.848Z,20.40
2023-05-20T05:49:35.205Z,20.60
2023-05-20T05:52:03.967Z,20.70
2023-05-20T05:54:32.599Z,20.90
2023-05-20T05:57:01.269Z,21.00
2023-05-20T05:59:29.888Z,21.10
2023-05-20T06:01:58.565Z,21.20
2023-05-20T06:04:27.426Z,21.30
2023-05-20T06:06:56.185Z,21.40
2023-05-20T06:09:24.782Z,21.50
2023-05-20T06:11:53.428Z,21.60
2023-05-20T06:14:22.198Z,21.70
2023-05-20T06:16:50.888Z,21.70
2023-05-20T06:19:19.685Z,21.70
2023-05-20T06:21:48.292Z,21.70
2023-05-20T06:24:17.091Z,21.70
2023-05-20T06:26:46.165Z,21.60
2023-05-20T06:29:14.860Z,21.50
2023-05-20T06:31:43.460Z,20.90
2023-05-20T06:34:12.085Z,21.20
2023-05-20T06:36:40.776Z,21.00
2023-05-20T06:39:11.133Z,20.90
2023-05-20T06:41:41.010Z,20.80
2023-05-20T06:44:09.650Z,20.70
2023-05-20T06:46:38.320Z,20.50
2023-05-20T06:49:06.957Z,20.50
2023-05-20T06:51:35.615Z,20.30
2023-05-20T06:54:04.248Z,20.30
2023-05-20T06:56:32.887Z,20.10
2023-05-20T06:59:01.504Z,20.00
2023-05-20T07:01:30.181Z,19.90
2023-05-20T07:03:58.832Z,19.80
2023-05-20T07:06:27.482Z,19.70
2023-05-20T07:08:56.176Z,19.60
2023-05-20T07:11:24.822Z,19.60
2023-05-20T07:13:53.652Z,19.50
2023-05-20T07:16:22.285Z,19.50
2023-05-20T07:18:50.941Z,19.50
2023-05-20T07:21:19.680Z,19.50
2023-05-20T07:23:48.361Z,19.50
2023-05-20T07:26:17.003Z,19.50
2023-05-20T07:28:47.108Z,19.50
2023-05-20T07:31:15.955Z,19.50
2023-05-20T07:33:44.541Z,19.50
2023-05-20T07:36:13.191Z,19.60
2023-05-20T07:38:47.208Z,19.70
2023-05-20T07:41:12.129Z,19.70
2023-05-20T07:43:40.763Z,19.80
2023-05-20T07:46:09.525Z,19.90
2023-05-20T07:48:38.134Z,20.00
2023-05-20T07:51:06.976Z,20.00
2023-05-20T07:53:36.101Z,20.10
2023-05-20T07:56:04.905Z,20.20
2023-05-20T07:58:33.921Z,20.30
2023-05-20T08:01:02.604Z,20.40
2023-05-20T08:03:31.313Z,20.60
2023-05-20T08:06:00.112Z,20.80
2023-05-20T08:08:30.523Z,21.00
2023-05-20T08:10:59.228Z,21.20
2023-05-20T08:13:28.022Z,21.40
2023-05-20T08:15:56.930Z,21.50
2023-05-20T08:18:28.836Z,21.60
2023-05-20T08:20:57.747Z,21.70
2023-05-20T08:23:26.652Z,21.70
2023-05-20T08:25:55.278Z,21.70
2023-05-20T08:28:23.978Z,21.70
2023-05-20T08:30:52.953Z,21.80
2023-05-20T08:33:22.405Z,21.80
2023-05-20T08:35:51.087Z,21.90
2023-05-20T08:38:19.743Z,22.00
2023-05-20T08:40:53.948Z,22.00
2023-05-20T08:43:23.708Z,22.00
2023-05-20T08:45:55.621Z,22.00
2023-05-20T08:48:26.856Z,22.10
2023-05-20T08:50:58.023Z,22.20
2023-05-20T08:53:28.000Z,22.30
2023-05-20T08:56:03.001Z,22.40
2023-05-20T08:58:33.946Z,22.50
2023-05-20T09:01:03.066Z,22.60
2023-05-20T09:03:32.155Z,22.70
2023-05-20T09:06:08.857Z,22.90
2023-05-20T09:08:37.726Z,23.10
2023-05-20T09:11:06.364Z,23.30
2023-05-20T09:13:35.018Z,23.40
2023-05-20T09:16:04.429Z,23.40
2023-05-20T09:18:33.152Z,23.50
2023-05-20T09:21:04.813Z,23.70
2023-05-20T09:23:33.615Z,23.70
2023-05-20T09:26:02.731Z,23.80
2023-05-20T09:28:31.362Z,23.90
2023-05-20T09:31:02.722Z,23.80
2023-05-20T09:33:32.344Z,23.80
2023-05-20T09:36:05.588Z,23.90
2023-05-20T09:38:38.904Z,23.90
2023-05-20T09:41:13.010Z,23.90
2023-05-20T09:43:42.525Z,24.00
2023-05-20T09:46:12.048Z,23.90
2023-05-20T09:48:41.274Z,23.90
2023-05-20T09:51:10.924Z,23.80
2023-05-20T09:53:39.590Z,23.70
2023-05-20T09:56:08.270Z,23.70
2023-05-20T09:58:41.669Z,23.70
2023-05-20T10:01:10.364Z,23.60
2023-05-20T10:03:40.120Z,23.70
2023-05-20T10:06:31.511Z,23.70
2023-05-20T10:09:21.345Z,23.70
2023-05-20T10:12:08.014Z,23.70
2023-05-20T10:14:51.346Z,23.60
2023-05-20T10:17:23.677Z,23.80
2023-05-20T10:19:55.362Z,23.80
2023-05-20T10:22:32.725Z,23.90
2023-05-20T10:25:03.636Z,23.90
2023-05-20T10:27:33.797Z,24.00
2023-05-20T10:30:02.450Z,24.10
2023-05-20T10:32:33.117Z,24.20
2023-05-20T10:35:07.244Z,24.40
2023-05-20T10:37:44.474Z,24.50
2023-05-20T10:40:19.170Z,24.60
2023-05-20T10:42:48.220Z,24.70
2023-05-20T10:45:32.281Z,24.70
2023-05-20T10:48:01.114Z,24.70
2023-05-20T10:50:37.421Z,24.70
2023-05-20T10:53:13.189Z,24.60
2023-05-20T10:55:40.629Z,24.60
2023-05-20T10:58:11.204Z,24.60
2023-05-20T11:00:41.151Z,24.50
2023-05-20T11:03:10.485Z,24.40
2023-05-20T11:05:40.969Z,24.40
2023-05-20T11:08:24.604Z,24.30
2023-05-20T11:10:43.759Z,24.20
2023-05-20T11:13:16.225Z,24.10
2023-05-20T11:15:45.573Z,24.00
2023-05-20T11:18:17.056Z,23.80
2023-05-20T11:20:47.573Z,23.70
2023-05-20T11:23:18.362Z,23.70
2023-05-20T11:25:47.090Z,23.70
2023-05-20T11:28:16.584Z,23.50
2023-05-20T11:30:45.294Z,23.50
2023-05-20T11:33:15.317Z,23.50
2023-05-20T11:35:52.921Z,23.50
2023-05-20T11:38:22.230Z,23.50
2023-05-20T11:40:57.001Z,23.50
2023-05-20T11:43:26.199Z,23.40
2023-05-20T11:46:01.888Z,23.40
2023-05-20T11:48:30.516Z,23.50
2023-05-20T11:51:01.307Z,23.60
2023-05-20T11:53:29.463Z,23.80
2023-05-20T11:55:59.967Z,24.00
2023-05-20T11:58:31.323Z,24.10
2023-05-20T12:01:13.412Z,24.10
2023-05-20T12:03:31.986Z,24.10
2023-05-20T12:06:03.279Z,24.20
2023-05-20T12:08:31.909Z,24.40
2023-05-20T12:11:00.535Z,24.40
2023-05-20T12:13:30.606Z,24.40
2023-05-20T12:15:59.263Z,24.30
2023-05-20T12:18:27.892Z,24.30
2023-05-20T12:20:56.549Z,24.40
2023-05-20T12:23:26.938Z,24.40
2023-05-20T12:25:55.647Z,24.50
2023-05-20T12:28:24.402Z,24.50
2023-05-20T12:30:53.163Z,24.50
2023-05-20T12:33:22.340Z,24.60
2023-05-20T12:35:51.012Z,24.50
2023-05-20T12:38:20.195Z,24.30
2023-05-20T12:48:49.725Z,24.10
2023-05-20T12:51:20.238Z,24.20
2023-05-20T12:53:50.499Z,24.20
2023-05-20T12:56:19.974Z,24.30
2023-05-20T12:58:48.736Z,24.30
2023-05-20T13:01:17.412Z,24.30
2023-05-20T13:03:47.261Z,24.30
2023-05-20T13:06:16.742Z,24.40
2023-05-20T13:08:45.416Z,24.40
2023-05-20T13:11:14.143Z,24.40
2023-05-20T13:13:42.955Z,24.40
2023-05-20T13:16:11.999Z,24.50
2023-05-20T13:18:40.731Z,24.60
2023-05-20T13:21:09.324Z,24.70
2023-05-20T13:23:38.463Z,24.80
2023-05-20T13:26:07.187Z,24.90
2023-05-20T13:28:36.960Z,24.90
2023-05-20T13:31:07.382Z,25.00
2023-05-20T13:33:36.769Z,25.10
2023-05-20T13:36:05.684Z,25.20
2023-05-20T13:38:37.631Z,25.20
2023-05-20T13:41:07.643Z,25.20
2023-05-20T13:43:36.299Z,25.10
2023-05-20T13:46:05.182Z,25.10
2023-05-20T13:48:33.828Z,25.10
2023-05-20T13:51:02.535Z,25.10
2023-05-20T13:53:32.332Z,25.20
2023-05-20T13:56:01.218Z,25.20
2023-05-20T13:58:30.720Z,25.20
2023-05-20T14:01:00.529Z,25.20
2023-05-20T14:03:30.063Z,25.20
2023-05-20T14:05:59.014Z,25.20
2023-05-20T14:08:30.550Z,25.20
2023-05-20T14:11:00.987Z,25.20
2023-05-20T14:13:29.773Z,25.20
2023-05-20T14:15:58.602Z,25.20
2023-05-20T14:18:27.348Z,25.20
2023-05-20T14:20:56.428Z,25.10
2023-05-20T14:23:25.079Z,25.00
2023-05-20T14:25:53.848Z,24.90
2023-05-20T14:28:22.463Z,25.00
2023-05-20T14:30:51.167Z,25.00
2023-05-20T14:33:19.894Z,25.00
2023-05-20T14:35:48.569Z,25.20
2023-05-20T14:38:19.217Z,25.20
2023-05-20T14:40:47.880Z,25.20
2023-05-20T14:43:16.877Z,25.20
2023-05-20T14:45:47.192Z,25.10
2023-05-20T14:48:15.942Z,25.00
2023-05-20T14:50:44.693Z,24.90
2023-05-20T14:53:13.970Z,24.80
2023-05-20T14:55:42.625Z,24.70
2023-05-20T14:58:11.386Z,24.70
2023-05-20T15:00:40.548Z,24.70
2023-05-20T15:03:09.352Z,24.60
2023-05-20T15:05:38.083Z,24.60
2023-05-20T15:08:06.743Z,24.60
2023-05-20T15:10:36.076Z,24.50
2023-05-20T15:13:04.804Z,24.40
2023-05-20T15:15:34.224Z,24.40
2023-05-20T15:18:02.962Z,24.40
2023-05-20T15:20:31.632Z,24.40
2023-05-20T15:23:01.147Z,24.40
2023-05-20T15:25:30.077Z,24.30
2023-05-20T15:27:58.729Z,24.20
2023-05-20T15:30:28.678Z,24.10
2023-05-20T15:32:57.821Z,24.00
2023-05-20T15:35:26.958Z,24.00
2023-05-20T15:37:55.676Z,23.90
2023-05-20T15:40:24.398Z,23.80
2023-05-20T15:42:53.639Z,23.80
2023-05-20T15:45:22.426Z,23.70
2023-05-20T15:47:51.095Z,23.70
2023-05-20T15:50:19.775Z,23.60
2023-05-20T15:52:48.446Z,23.50
2023-05-20T15:55:17.208Z,23.50
2023-05-20T15:57:46.013Z,23.40
2023-05-20T16:00:15.856Z,23.30
2023-05-20T16:02:44.829Z,23.20
2023-05-20T16:05:13.940Z,23.10
2023-05-20T16:07:44.119Z,23.10
2023-05-20T16:10:12.979Z,23.00
2023-05-20T16:12:41.992Z,22.90
2023-05-20T16:15:11.046Z,22.90
2023-05-20T16:17:40.199Z,23.00
2023-05-20T16:20:10.034Z,22.90
2023-05-20T16:22:38.712Z,22.90
2023-05-20T16:25:07.461Z,22.90
2023-05-20T16:27:36.249Z,22.90
2023-05-20T16:30:07.226Z,22.80
2023-05-20T16:32:35.982Z,22.70
2023-05-20T16:35:05.028Z,22.70
2023-05-20T16:37:33.746Z,22.70
2023-05-20T16:40:02.468Z,22.70
2023-05-20T16:42:31.180Z,22.60
2023-05-20T16:44:59.816Z,22.70
2023-05-20T16:47:28.491Z,22.70
2023-05-20T16:49:57.084Z,22.60
2023-05-20T16:52:25.974Z,22.60
2023-05-20T16:54:56.272Z,22.60
2023-05-20T16:57:24.900Z,22.60
2023-05-20T16:59:53.614Z,22.50
2023-05-20T17:02:22.389Z,22.50
2023-05-20T17:04:51.150Z,22.50
2023-05-20T17:07:19.830Z,22.40
2023-05-20T17:09:48.549Z,22.40
2023-05-20T17:12:17.237Z,22.40
2023-05-20T17:14:46.064Z,22.40
2023-05-20T17:17:14.959Z,22.40
2023-05-20T17:19:44.043Z,22.40
2023-05-20T17:22:12.813Z,22.30
2023-05-20T17:24:41.586Z,22.30
2023-05-20T17:27:10.462Z,22.30
2023-05-20T17:29:39.171Z,22.30
2023-05-20T17:32:08.160Z,22.30
2023-05-20T17:34:36.851Z,22.30
2023-05-20T17:37:05.814Z,22.30
2023-05-20T17:39:34.465Z,22.30
2023-05-20T17:42:03.089Z,22.30
2023-05-20T17:44:31.731Z,22.20
2023-05-20T17:47:00.436Z,22.20
2023-05-20T17:49:29.061Z,22.10
2023-05-20T17:51:57.731Z,22.10
2023-05-20T17:54:26.489Z,22.00
2023-05-20T17:56:55.077Z,22.00
2023-05-20T17:59:23.734Z,22.00
2023-05-20T18:01:52.799Z,22.00
2023-05-20T18:04:21.888Z,22.00
2023-05-20T18:06:50.521Z,22.00
2023-05-20T18:09:19.658Z,22.00
2023-05-20T18:11:48.315Z,21.90
2023-05-20T18:14:18.600Z,21.90
2023-05-20T18:16:47.229Z,21.90
2023-05-20T18:19:16.062Z,21.90
2023-05-20T18:21:44.750Z,21.80
2023-05-20T18:24:15.042Z,21.80
2023-05-20T18:26:44.425Z,21.70
2023-05-20T18:29:13.143Z,21.70
2023-05-20T18:31:43.467Z,21.70
2023-05-20T18:34:12.383Z,21.60
2023-05-20T18:36:41.041Z,21.60
2023-05-20T18:39:10.623Z,21.60
2023-05-20T18:41:47.326Z,21.60
2023-05-20T18:44:09.531Z,21.60
2023-05-20T18:46:38.280Z,21.60
2023-05-20T18:49:07.047Z,21.60
2023-05-20T18:51:35.884Z,21.60
2023-05-20T18:54:04.600Z,21.60
2023-05-20T18:56:33.388Z,21.50
2023-05-20T18:59:02.124Z,21.50
2023-05-20T19:01:31.406Z,21.50
2023-05-20T19:04:00.456Z,21.50
2023-05-20T19:06:29.104Z,21.50
2023-05-20T19:08:57.760Z,21.50
2023-05-20T19:11:26.403Z,21.50
2023-05-20T19:13:55.224Z,21.40
2023-05-20T19:16:23.988Z,21.40
2023-05-20T19:18:52.642Z,21.30
2023-05-20T19:21:21.393Z,21.30
2023-05-20T19:23:50.228Z,21.30
2023-05-20T19:26:19.735Z,21.20
2023-05-20T19:28:48.449Z,21.20
2023-05-20T19:31:18.855Z,21.10
2023-05-20T19:33:49.350Z,21.10
2023-05-20T19:36:18.440Z,21.00
2023-05-20T19:38:47.654Z,21.00
2023-05-20T19:41:16.346Z,20.90
2023-05-20T19:43:45.065Z,20.80
2023-05-20T19:46:13.814Z,20.80
2023-05-20T19:48:42.530Z,20.70
2023-05-20T19:51:11.259Z,20.70
2023-05-20T19:53:41.252Z,20.60
2023-05-20T19:56:10.064Z,20.60
2023-05-20T19:58:41.559Z,20.60
2023-05-20T20:01:10.832Z,20.60
2023-05-20T20:03:42.736Z,20.50
2023-05-20T20:06:12.498Z,20.50
2023-05-20T20:08:41.616Z,20.50
2023-05-20T20:11:10.679Z,20.40
2023-05-20T20:13:39.365Z,20.40
2023-05-20T20:16:08.425Z,20.30
2023-05-20T20:18:37.259Z,20.30
2023-05-20T20:21:06.429Z,20.30
2023-05-20T20:23:36.706Z,20.20
2023-05-20T20:26:07.749Z,20.20
2023-05-20T20:28:36.613Z,20.20
2023-05-20T20:31:05.403Z,20.10
2023-05-20T20:33:34.034Z,20.10
2023-05-20T20:36:02.759Z,20.10
2023-05-20T20:38:31.388Z,20.00
2023-05-20T20:41:01.681Z,20.00
2023-05-20T20:43:30.792Z,19.90
2023-05-20T20:46:00.064Z,19.90
2023-05-20T20:48:28.848Z,19.90
2023-05-20T20:50:57.524Z,19.80
2023-05-20T20:53:26.722Z,19.80
2023-05-20T20:55:56.849Z,19.70
2023-05-20T20:58:27.101Z,19.70
2023-05-20T21:00:55.781Z,19.70
2023-05-20T21:03:26.322Z,19.70
2023-05-20T21:05:55.227Z,19.60
2023-05-20T21:08:25.512Z,19.60
2023-05-20T21:10:56.064Z,19.50
2023-05-20T21:13:24.666Z,19.50
2023-05-20T21:15:53.479Z,19.50
2023-05-20T21:18:41.471Z,19.40
2023-05-20T21:21:11.772Z,19.40
2023-05-20T21:23:42.184Z,19.40
2023-05-20T21:26:10.811Z,19.40
2023-05-20T21:28:39.452Z,19.30
2023-05-20T21:31:08.147Z,19.30
2023-05-20T21:33:36.940Z,19.20
2023-05-20T21:36:05.993Z,19.20
2023-05-20T21:38:34.648Z,19.20
2023-05-20T21:41:03.427Z,19.20
2023-05-20T21:43:32.086Z,19.20
2023-05-20T21:46:00.795Z,19.20
2023-05-20T21:48:29.486Z,19.10
2023-05-20T21:50:58.193Z,19.20
2023-05-20T21:53:26.815Z,19.10
2023-05-20T21:55:55.876Z,19.10
2023-05-20T21:58:24.559Z,19.10
2023-05-20T22:00:53.279Z,19.10
2023-05-20T22:03:22.190Z,19.10
2023-05-20T22:05:51.200Z,19.10
2023-05-20T22:08:19.854Z,19.10
2023-05-20T22:10:48.479Z,19.00
2023-05-20T22:13:17.226Z,19.00
2023-05-20T22:15:45.888Z,19.00
2023-05-20T22:18:14.901Z,19.00
2023-05-20T22:20:43.703Z,19.00
2023-05-20T22:23:12.467Z,19.00
2023-05-20T22:25:41.168Z,19.00
2023-05-20T22:28:09.837Z,18.90
2023-05-20T22:30:38.906Z,19.00
2023-05-20T22:33:07.591Z,18.90
2023-05-20T22:35:36.501Z,18.90
2023-05-20T22:38:05.375Z,18.90
2023-05-20T22:40:34.682Z,18.90
2023-05-20T22:43:03.334Z,18.80
2023-05-20T22:45:32.019Z,18.90
2023-05-20T22:48:02.012Z,18.90
2023-05-20T22:50:30.972Z,18.80
2023-05-20T22:52:59.614Z,18.80
2023-05-20T22:55:28.261Z,18.80
2023-05-20T22:57:57.708Z,18.90
2023-05-20T23:00:26.378Z,18.90
2023-05-20T23:02:56.625Z,18.90
2023-05-20T23:05:25.346Z,19.00
2023-05-20T23:07:55.032Z,19.00
2023-05-20T23:10:25.288Z,19.00
2023-05-20T23:12:53.986Z,19.00
2023-05-20T23:15:24.361Z,19.10
2023-05-20T23:17:53.026Z,19.10
2023-05-20T23:20:22.374Z,19.10
2023-05-20T23:22:51.230Z,19.10
2023-05-20T23:25:19.961Z,19.10
2023-05-20T23:27:48.646Z,19.20
2023-05-20T23:30:17.281Z,19.10
2023-05-20T23:32:46.039Z,19.10
2023-05-20T23:35:14.694Z,19.10
2023-05-20T23:37:43.335Z,19.20
2023-05-20T23:40:12.874Z,19.10
2023-05-20T23:42:41.593Z,19.20
2023-05-20T23:45:11.171Z,19.10
2023-05-20T23:47:39.933Z,19.20
2023-05-20T23:50:09.331Z,19.10
2023-05-20T23:52:37.984Z,19.10
2023-05-20T23:55:08.723Z,19.10
2023-05-20T23:57:37.378Z,19.10
